sensor_id;sensor_type;location;lat;lon;timestamp;pressure;altitude;pressure_sealevel;temperature;humidity
72585;BME280;60618;40.084;32.908;2023-10-13T00:00:59;90117.56;;;9.91;48.53
72585;BME280;60618;40.084;32.908;2023-10-13T00:03:26;90118.50;;;9.79;48.76
72585;BME280;60618;40.084;32.908;2023-10-13T00:05:57;90123.16;;;9.60;49.99
72585;BME280;60618;40.084;32.908;2023-10-13T00:08:24;90119.59;;;9.73;49.02
72585;BME280;60618;40.084;32.908;2023-10-13T00:10:51;90114.69;;;9.80;48.90
72585;BME280;60618;40.084;32.908;2023-10-13T00:13:18;90124.53;;;9.56;50.16
72585;BME280;60618;40.084;32.908;2023-10-13T00:15:46;90113.41;;;9.66;49.26
72585;BME280;60618;40.084;32.908;2023-10-13T00:18:13;90118.25;;;9.68;48.72
72585;BME280;60618;40.084;32.908;2023-10-13T00:20:41;90114.50;;;9.84;48.60
72585;BME280;60618;40.084;32.908;2023-10-13T00:23:08;90111.38;;;9.85;48.37
72585;BME280;60618;40.084;32.908;2023-10-13T00:25:35;90117.28;;;9.89;49.17
72585;BME280;60618;40.084;32.908;2023-10-13T00:28:02;90108.69;;;9.94;47.67
72585;BME280;60618;40.084;32.908;2023-10-13T00:30:29;90101.56;;;9.67;49.35
72585;BME280;60618;40.084;32.908;2023-10-13T00:32:57;90116.28;;;9.54;50.01
72585;BME280;60618;40.084;32.908;2023-10-13T00:35:27;90109.50;;;9.44;50.09
72585;BME280;60618;40.084;32.908;2023-10-13T00:37:58;90115.44;;;9.29;50.85
72585;BME280;60618;40.084;32.908;2023-10-13T00:40:25;90118.41;;;9.31;50.41
72585;BME280;60618;40.084;32.908;2023-10-13T00:42:53;90110.09;;;9.38;50.45
72585;BME280;60618;40.084;32.908;2023-10-13T00:45:21;90119.59;;;9.30;50.16
72585;BME280;60618;40.084;32.908;2023-10-13T00:47:48;90112.50;;;9.27;50.38
72585;BME280;60618;40.084;32.908;2023-10-13T00:50:16;90110.56;;;9.37;49.62
72585;BME280;60618;40.084;32.908;2023-10-13T00:52:46;90119.38;;;9.43;49.55
72585;BME280;60618;40.084;32.908;2023-10-13T00:55:14;90100.91;;;9.49;49.38
72585;BME280;60618;40.084;32.908;2023-10-13T00:57:41;90113.59;;;9.54;49.51
72585;BME280;60618;40.084;32.908;2023-10-13T01:00:09;90113.72;;;9.59;49.00
72585;BME280;60618;40.084;32.908;2023-10-13T01:02:35;90114.44;;;9.60;48.89
72585;BME280;60618;40.084;32.908;2023-10-13T01:05:03;90109.03;;;9.54;49.16
72585;BME280;60618;40.084;32.908;2023-10-13T01:07:31;90114.16;;;9.58;49.45
72585;BME280;60618;40.084;32.908;2023-10-13T01:09:58;90122.81;;;9.44;49.97
72585;BME280;60618;40.084;32.908;2023-10-13T01:12:25;90122.25;;;9.30;49.82
72585;BME280;60618;40.084;32.908;2023-10-13T01:14:52;90126.78;;;9.39;49.82
72585;BME280;60618;40.084;32.908;2023-10-13T01:17:19;90118.66;;;9.43;50.00
72585;BME280;60618;40.084;32.908;2023-10-13T01:19:46;90118.88;;;9.21;51.25
72585;BME280;60618;40.084;32.908;2023-10-13T01:22:13;90121.97;;;9.19;51.07
72585;BME280;60618;40.084;32.908;2023-10-13T01:24:40;90116.72;;;9.01;51.38
72585;BME280;60618;40.084;32.908;2023-10-13T01:27:07;90112.72;;;8.87;51.90
72585;BME280;60618;40.084;32.908;2023-10-13T01:29:34;90112.16;;;8.83;52.18
72585;BME280;60618;40.084;32.908;2023-10-13T01:32:01;90108.31;;;8.84;52.01
72585;BME280;60618;40.084;32.908;2023-10-13T01:34:28;90113.78;;;8.80;52.04
72585;BME280;60618;40.084;32.908;2023-10-13T01:36:55;90114.84;;;8.65;53.01
72585;BME280;60618;40.084;32.908;2023-10-13T01:39:24;90112.63;;;8.54;52.95
72585;BME280;60618;40.084;32.908;2023-10-13T01:41:51;90117.94;;;8.54;52.75
72585;BME280;60618;40.084;32.908;2023-10-13T01:44:17;90116.91;;;8.42;52.68
72585;BME280;60618;40.084;32.908;2023-10-13T01:46:44;90124.00;;;8.55;52.83
72585;BME280;60618;40.084;32.908;2023-10-13T01:49:11;90115.56;;;8.47;52.66
72585;BME280;60618;40.084;32.908;2023-10-13T01:51:38;90123.66;;;8.62;51.87
72585;BME280;60618;40.084;32.908;2023-10-13T01:54:05;90122.78;;;8.74;51.79
72585;BME280;60618;40.084;32.908;2023-10-13T01:56:32;90123.25;;;8.54;52.19
72585;BME280;60618;40.084;32.908;2023-10-13T01:58:59;90125.31;;;8.41;52.76
72585;BME280;60618;40.084;32.908;2023-10-13T02:01:33;90126.03;;;8.41;52.78
72585;BME280;60618;40.084;32.908;2023-10-13T02:04:01;90115.56;;;8.56;52.35
72585;BME280;60618;40.084;32.908;2023-10-13T02:06:35;90119.53;;;8.70;51.74
72585;BME280;60618;40.084;32.908;2023-10-13T02:09:06;90125.31;;;8.59;53.31
72585;BME280;60618;40.084;32.908;2023-10-13T02:11:33;90130.03;;;8.55;52.65
72585;BME280;60618;40.084;32.908;2023-10-13T02:13:59;90125.31;;;8.50;53.15
72585;BME280;60618;40.084;32.908;2023-10-13T02:16:27;90130.16;;;8.42;52.89
72585;BME280;60618;40.084;32.908;2023-10-13T02:18:54;90123.34;;;8.14;53.70
72585;BME280;60618;40.084;32.908;2023-10-13T02:21:20;90127.34;;;8.18;53.29
72585;BME280;60618;40.084;32.908;2023-10-13T02:23:48;90129.53;;;8.11;54.06
72585;BME280;60618;40.084;32.908;2023-10-13T02:26:14;90126.97;;;7.98;54.10
72585;BME280;60618;40.084;32.908;2023-10-13T02:28:42;90129.09;;;8.21;53.22
72585;BME280;60618;40.084;32.908;2023-10-13T02:31:09;90124.72;;;8.37;52.31
72585;BME280;60618;40.084;32.908;2023-10-13T02:33:36;90129.25;;;8.18;53.82
72585;BME280;60618;40.084;32.908;2023-10-13T02:36:03;90132.31;;;8.16;54.07
72585;BME280;60618;40.084;32.908;2023-10-13T02:38:31;90130.84;;;8.06;53.81
72585;BME280;60618;40.084;32.908;2023-10-13T02:40:59;90130.19;;;7.75;54.84
72585;BME280;60618;40.084;32.908;2023-10-13T02:43:26;90130.66;;;7.82;54.41
72585;BME280;60618;40.084;32.908;2023-10-13T02:49:14;90140.13;;;8.11;53.12
72585;BME280;60618;40.084;32.908;2023-10-13T02:51:41;90126.41;;;8.03;53.48
72585;BME280;60618;40.084;32.908;2023-10-13T02:54:08;90131.03;;;7.72;55.21
72585;BME280;60618;40.084;32.908;2023-10-13T02:56:36;90132.50;;;7.73;55.40
72585;BME280;60618;40.084;32.908;2023-10-13T02:59:03;90137.88;;;7.82;54.58
72585;BME280;60618;40.084;32.908;2023-10-13T03:01:32;90137.69;;;7.76;55.17
72585;BME280;60618;40.084;32.908;2023-10-13T03:04:01;90130.00;;;7.69;55.49
72585;BME280;60618;40.084;32.908;2023-10-13T03:06:28;90135.22;;;7.82;54.56
72585;BME280;60618;40.084;32.908;2023-10-13T03:08:55;90130.53;;;7.95;53.97
72585;BME280;60618;40.084;32.908;2023-10-13T03:11:22;90130.56;;;8.13;53.26
72585;BME280;60618;40.084;32.908;2023-10-13T03:13:49;90130.56;;;8.22;52.75
72585;BME280;60618;40.084;32.908;2023-10-13T03:16:16;90130.56;;;8.32;52.26
72585;BME280;60618;40.084;32.908;2023-10-13T03:18:44;90132.03;;;8.33;52.83
72585;BME280;60618;40.084;32.908;2023-10-13T03:21:11;90127.75;;;8.26;53.20
72585;BME280;60618;40.084;32.908;2023-10-13T03:23:41;90122.31;;;8.11;54.35
72585;BME280;60618;40.084;32.908;2023-10-13T03:26:09;90133.47;;;7.97;54.93
72585;BME280;60618;40.084;32.908;2023-10-13T03:28:36;90123.00;;;7.84;54.93
72585;BME280;60618;40.084;32.908;2023-10-13T03:31:03;90134.00;;;7.74;55.90
72585;BME280;60618;40.084;32.908;2023-10-13T03:33:30;90130.78;;;7.88;55.31
72585;BME280;60618;40.084;32.908;2023-10-13T03:35:57;90120.22;;;7.97;54.14
72585;BME280;60618;40.084;32.908;2023-10-13T03:38:24;90128.78;;;8.10;54.03
72585;BME280;60618;40.084;32.908;2023-10-13T03:40:50;90123.47;;;8.01;54.79
72585;BME280;60618;40.084;32.908;2023-10-13T03:43:17;90122.53;;;7.86;54.92
72585;BME280;60618;40.084;32.908;2023-10-13T03:45:45;90121.97;;;7.82;55.49
72585;BME280;60618;40.084;32.908;2023-10-13T03:48:14;90128.34;;;8.03;54.38
72585;BME280;60618;40.084;32.908;2023-10-13T03:50:42;90127.44;;;7.96;54.63
72585;BME280;60618;40.084;32.908;2023-10-13T03:53:08;90127.56;;;7.84;55.68
72585;BME280;60618;40.084;32.908;2023-10-13T03:55:35;90123.09;;;7.72;55.80
72585;BME280;60618;40.084;32.908;2023-10-13T03:58:02;90119.00;;;7.80;55.01
72585;BME280;60618;40.084;32.908;2023-10-13T04:00:30;90122.56;;;7.95;54.33
72585;BME280;60618;40.084;32.908;2023-10-13T04:02:57;90122.00;;;8.09;54.56
72585;BME280;60618;40.084;32.908;2023-10-13T04:05:24;90119.34;;;8.00;55.20
72585;BME280;60618;40.084;32.908;2023-10-13T04:07:51;90128.78;;;8.10;55.01
72585;BME280;60618;40.084;32.908;2023-10-13T04:10:18;90131.00;;;8.21;55.65
72585;BME280;60618;40.084;32.908;2023-10-13T04:12:49;90126.78;;;8.60;54.48
72585;BME280;60618;40.084;32.908;2023-10-13T04:15:15;90129.66;;;9.17;53.14
72585;BME280;60618;40.084;32.908;2023-10-13T04:17:42;90131.97;;;9.76;52.14
72585;BME280;60618;40.084;32.908;2023-10-13T04:20:09;90142.03;;;10.38;52.01
72585;BME280;60618;40.084;32.908;2023-10-13T04:22:37;90130.34;;;10.35;48.44
72585;BME280;60618;40.084;32.908;2023-10-13T04:25:04;90127.97;;;10.37;49.21
72585;BME280;60618;40.084;32.908;2023-10-13T04:27:32;90146.75;;;10.58;48.39
72585;BME280;60618;40.084;32.908;2023-10-13T04:29:58;90143.38;;;10.57;48.37
72585;BME280;60618;40.084;32.908;2023-10-13T04:32:25;90143.47;;;10.63;48.71
72585;BME280;60618;40.084;32.908;2023-10-13T04:34:52;90141.75;;;10.74;48.40
72585;BME280;60618;40.084;32.908;2023-10-13T04:37:19;90144.47;;;10.89;47.28
72585;BME280;60618;40.084;32.908;2023-10-13T04:39:46;90152.91;;;10.88;47.15
72585;BME280;60618;40.084;32.908;2023-10-13T04:42:13;90152.16;;;10.87;47.39
72585;BME280;60618;40.084;32.908;2023-10-13T04:44:40;90149.06;;;10.89;47.87
72585;BME280;60618;40.084;32.908;2023-10-13T04:47:07;90169.38;;;11.01;47.17
72585;BME280;60618;40.084;32.908;2023-10-13T04:49:40;90155.50;;;11.12;46.80
72585;BME280;60618;40.084;32.908;2023-10-13T04:52:07;90158.81;;;11.21;46.53
72585;BME280;60618;40.084;32.908;2023-10-13T04:57:02;90161.31;;;11.40;46.33
72585;BME280;60618;40.084;32.908;2023-10-13T04:59:29;90167.97;;;11.44;46.99
72585;BME280;60618;40.084;32.908;2023-10-13T05:01:56;90168.50;;;11.48;46.28
72585;BME280;60618;40.084;32.908;2023-10-13T05:04:23;90172.38;;;11.62;46.42
72585;BME280;60618;40.084;32.908;2023-10-13T05:06:50;90172.44;;;11.68;45.45
72585;BME280;60618;40.084;32.908;2023-10-13T05:09:17;90170.97;;;11.66;45.33
72585;BME280;60618;40.084;32.908;2023-10-13T05:11:48;90169.59;;;11.56;45.73
72585;BME280;60618;40.084;32.908;2023-10-13T05:14:15;90182.41;;;11.52;46.25
72585;BME280;60618;40.084;32.908;2023-10-13T05:16:44;90189.56;;;11.46;46.04
72585;BME280;60618;40.084;32.908;2023-10-13T05:19:11;90179.63;;;11.61;45.93
72585;BME280;60618;40.084;32.908;2023-10-13T05:21:39;90194.56;;;11.83;45.97
72585;BME280;60618;40.084;32.908;2023-10-13T05:24:07;90182.41;;;11.97;45.69
72585;BME280;60618;40.084;32.908;2023-10-13T05:26:34;90188.38;;;12.06;45.54
72585;BME280;60618;40.084;32.908;2023-10-13T05:29:03;90190.25;;;12.20;45.02
72585;BME280;60618;40.084;32.908;2023-10-13T05:31:47;90191.34;;;12.29;44.83
72585;BME280;60618;40.084;32.908;2023-10-13T05:34:14;90190.50;;;12.37;45.21
72585;BME280;60618;40.084;32.908;2023-10-13T05:36:42;90194.03;;;12.49;44.52
72585;BME280;60618;40.084;32.908;2023-10-13T05:39:10;90195.69;;;12.82;43.67
72585;BME280;60618;40.084;32.908;2023-10-13T05:41:37;90192.31;;;12.66;43.47
72585;BME280;60618;40.084;32.908;2023-10-13T05:44:04;90197.78;;;12.57;44.43
72585;BME280;60618;40.084;32.908;2023-10-13T05:46:31;90201.66;;;12.36;44.51
72585;BME280;60618;40.084;32.908;2023-10-13T05:48:58;90211.63;;;12.20;44.94
72585;BME280;60618;40.084;32.908;2023-10-13T05:51:26;90199.84;;;12.12;45.40
72585;BME280;60618;40.084;32.908;2023-10-13T05:53:53;90205.41;;;12.44;44.77
72585;BME280;60618;40.084;32.908;2023-10-13T05:56:20;90204.22;;;12.65;44.22
72585;BME280;60618;40.084;32.908;2023-10-13T05:58:47;90198.56;;;12.78;44.45
72585;BME280;60618;40.084;32.908;2023-10-13T06:01:14;90202.03;;;12.84;44.10
72585;BME280;60618;40.084;32.908;2023-10-13T06:03:41;90203.56;;;13.11;43.60
72585;BME280;60618;40.084;32.908;2023-10-13T06:06:08;90204.34;;;13.17;42.62
72585;BME280;60618;40.084;32.908;2023-10-13T06:08:35;90200.72;;;12.94;43.87
72585;BME280;60618;40.084;32.908;2023-10-13T06:11:03;90197.59;;;12.40;44.55
72585;BME280;60618;40.084;32.908;2023-10-13T06:13:30;90211.16;;;12.57;45.11
72585;BME280;60618;40.084;32.908;2023-10-13T06:15:57;90210.25;;;12.60;44.71
72585;BME280;60618;40.084;32.908;2023-10-13T06:18:24;90204.81;;;12.75;44.58
72585;BME280;60618;40.084;32.908;2023-10-13T06:20:51;90210.16;;;12.75;44.52
72585;BME280;60618;40.084;32.908;2023-10-13T06:23:18;90206.31;;;12.96;44.00
72585;BME280;60618;40.084;32.908;2023-10-13T06:25:55;90208.16;;;12.49;44.46
72585;BME280;60618;40.084;32.908;2023-10-13T06:28:22;90211.97;;;12.63;45.46
72585;BME280;60618;40.084;32.908;2023-10-13T06:30:59;90208.31;;;12.61;44.75
72585;BME280;60618;40.084;32.908;2023-10-13T06:33:26;90209.00;;;12.96;44.29
72585;BME280;60618;40.084;32.908;2023-10-13T06:35:53;90211.06;;;13.07;43.60
72585;BME280;60618;40.084;32.908;2023-10-13T06:38:20;90206.88;;;13.47;43.13
72585;BME280;60618;40.084;32.908;2023-10-13T06:40:47;90207.00;;;13.58;42.94
72585;BME280;60618;40.084;32.908;2023-10-13T06:43:15;90205.00;;;13.53;42.51
72585;BME280;60618;40.084;32.908;2023-10-13T06:45:45;90193.88;;;13.60;42.88
72585;BME280;60618;40.084;32.908;2023-10-13T06:48:12;90199.94;;;13.86;42.43
72585;BME280;60618;40.084;32.908;2023-10-13T06:50:39;90204.66;;;13.97;41.68
72585;BME280;60618;40.084;32.908;2023-10-13T06:53:06;90197.66;;;14.05;41.03
72585;BME280;60618;40.084;32.908;2023-10-13T06:55:36;90196.56;;;13.91;41.94
72585;BME280;60618;40.084;32.908;2023-10-13T06:58:03;90208.25;;;13.88;41.60
72585;BME280;60618;40.084;32.908;2023-10-13T07:00:30;90198.66;;;14.08;42.08
72585;BME280;60618;40.084;32.908;2023-10-13T07:02:57;90204.88;;;14.25;41.18
72585;BME280;60618;40.084;32.908;2023-10-13T07:05:24;90203.34;;;14.13;41.76
72585;BME280;60618;40.084;32.908;2023-10-13T07:07:51;90209.00;;;14.26;40.58
72585;BME280;60618;40.084;32.908;2023-10-13T07:10:19;90216.38;;;14.37;40.34
72585;BME280;60618;40.084;32.908;2023-10-13T07:12:45;90201.97;;;14.29;41.58
72585;BME280;60618;40.084;32.908;2023-10-13T07:15:12;90206.94;;;14.41;41.04
72585;BME280;60618;40.084;32.908;2023-10-13T07:17:39;90211.41;;;14.50;40.94
72585;BME280;60618;40.084;32.908;2023-10-13T07:20:07;90216.81;;;14.61;40.61
72585;BME280;60618;40.084;32.908;2023-10-13T07:22:34;90208.09;;;14.72;40.23
72585;BME280;60618;40.084;32.908;2023-10-13T07:25:01;90205.66;;;14.68;40.57
72585;BME280;60618;40.084;32.908;2023-10-13T07:27:28;90203.06;;;14.85;40.26
72585;BME280;60618;40.084;32.908;2023-10-13T07:29:55;90205.34;;;15.03;40.21
72585;BME280;60618;40.084;32.908;2023-10-13T07:32:23;90206.56;;;15.02;40.33
72585;BME280;60618;40.084;32.908;2023-10-13T07:34:53;90204.75;;;14.83;40.47
72585;BME280;60618;40.084;32.908;2023-10-13T07:37:20;90199.06;;;15.23;40.72
72585;BME280;60618;40.084;32.908;2023-10-13T07:39:47;90201.09;;;15.40;39.59
72585;BME280;60618;40.084;32.908;2023-10-13T07:42:13;90206.19;;;15.32;39.38
72585;BME280;60618;40.084;32.908;2023-10-13T07:44:41;90201.56;;;15.38;39.29
72585;BME280;60618;40.084;32.908;2023-10-13T07:47:08;90204.84;;;15.65;40.30
72585;BME280;60618;40.084;32.908;2023-10-13T07:49:38;90196.53;;;15.63;38.73
72585;BME280;60618;40.084;32.908;2023-10-13T07:52:07;90190.22;;;15.99;38.52
72585;BME280;60618;40.084;32.908;2023-10-13T07:54:34;90195.59;;;16.22;38.70
72585;BME280;60618;40.084;32.908;2023-10-13T07:57:01;90194.88;;;16.38;38.03
72585;BME280;60618;40.084;32.908;2023-10-13T07:59:28;90184.59;;;16.48;37.99
72585;BME280;60618;40.084;32.908;2023-10-13T08:01:55;90182.84;;;16.84;37.44
72585;BME280;60618;40.084;32.908;2023-10-13T08:04:22;90180.81;;;17.01;37.17
72585;BME280;60618;40.084;32.908;2023-10-13T08:06:49;90178.25;;;16.45;37.82
72585;BME280;60618;40.084;32.908;2023-10-13T08:09:16;90181.63;;;16.51;38.23
72585;BME280;60618;40.084;32.908;2023-10-13T08:11:43;90180.09;;;16.89;37.23
72585;BME280;60618;40.084;32.908;2023-10-13T08:14:10;90179.38;;;16.89;36.64
72585;BME280;60618;40.084;32.908;2023-10-13T08:16:40;90178.69;;;16.83;37.33
72585;BME280;60618;40.084;32.908;2023-10-13T08:19:08;90177.44;;;16.84;37.72
72585;BME280;60618;40.084;32.908;2023-10-13T08:21:34;90169.13;;;16.87;36.69
72585;BME280;60618;40.084;32.908;2023-10-13T08:24:02;90171.78;;;16.93;37.29
72585;BME280;60618;40.084;32.908;2023-10-13T08:26:28;90170.06;;;17.01;37.10
72585;BME280;60618;40.084;32.908;2023-10-13T08:28:57;90173.69;;;17.09;36.90
72585;BME280;60618;40.084;32.908;2023-10-13T08:31:25;90164.13;;;17.19;37.26
72585;BME280;60618;40.084;32.908;2023-10-13T08:33:52;90173.88;;;17.22;36.21
72585;BME280;60618;40.084;32.908;2023-10-13T08:36:19;90161.34;;;17.36;36.50
72585;BME280;60618;40.084;32.908;2023-10-13T08:38:47;90150.78;;;17.44;36.03
72585;BME280;60618;40.084;32.908;2023-10-13T08:41:14;90151.69;;;17.52;36.35
72585;BME280;60618;40.084;32.908;2023-10-13T08:43:42;90155.41;;;17.49;35.76
72585;BME280;60618;40.084;32.908;2023-10-13T08:46:09;90166.59;;;17.64;35.59
72585;BME280;60618;40.084;32.908;2023-10-13T08:48:36;90162.38;;;17.74;34.96
72585;BME280;60618;40.084;32.908;2023-10-13T08:51:03;90164.53;;;18.17;34.61
72585;BME280;60618;40.084;32.908;2023-10-13T08:53:32;90169.63;;;18.51;32.73
72585;BME280;60618;40.084;32.908;2023-10-13T08:56:03;90166.13;;;18.61;32.96
72585;BME280;60618;40.084;32.908;2023-10-13T08:58:31;90166.97;;;18.75;31.91
72585;BME280;60618;40.084;32.908;2023-10-13T09:00:58;90163.50;;;18.50;32.14
72585;BME280;60618;40.084;32.908;2023-10-13T09:03:25;90159.44;;;18.38;33.17
72585;BME280;60618;40.084;32.908;2023-10-13T09:05:52;90153.00;;;18.47;33.71
72585;BME280;60618;40.084;32.908;2023-10-13T09:08:25;90151.97;;;18.25;32.75
72585;BME280;60618;40.084;32.908;2023-10-13T09:10:58;90153.69;;;18.23;33.48
72585;BME280;60618;40.084;32.908;2023-10-13T09:13:34;90147.06;;;17.94;33.96
72585;BME280;60618;40.084;32.908;2023-10-13T09:16:09;90143.13;;;17.95;34.95
72585;BME280;60618;40.084;32.908;2023-10-13T09:18:36;90135.88;;;17.78;34.69
72585;BME280;60618;40.084;32.908;2023-10-13T09:21:03;90134.72;;;18.04;34.91
72585;BME280;60618;40.084;32.908;2023-10-13T09:23:30;90136.91;;;18.35;34.18
72585;BME280;60618;40.084;32.908;2023-10-13T09:26:05;90130.16;;;18.23;34.54
72585;BME280;60618;40.084;32.908;2023-10-13T09:28:32;90124.22;;;18.55;34.47
72585;BME280;60618;40.084;32.908;2023-10-13T09:30:59;90139.72;;;18.79;34.05
72585;BME280;60618;40.084;32.908;2023-10-13T09:33:28;90141.38;;;19.06;31.50
72585;BME280;60618;40.084;32.908;2023-10-13T09:35:55;90142.34;;;18.84;32.88
72585;BME280;60618;40.084;32.908;2023-10-13T09:38:22;90141.38;;;19.06;32.93
72585;BME280;60618;40.084;32.908;2023-10-13T09:40:49;90131.19;;;19.55;32.21
72585;BME280;60618;40.084;32.908;2023-10-13T09:43:17;90139.13;;;20.04;29.99
72585;BME280;60618;40.084;32.908;2023-10-13T09:45:48;90128.59;;;19.69;30.85
72585;BME280;60618;40.084;32.908;2023-10-13T09:48:16;90125.03;;;18.98;31.92
72585;BME280;60618;40.084;32.908;2023-10-13T09:50:47;90127.22;;;19.00;31.31
72585;BME280;60618;40.084;32.908;2023-10-13T09:53:15;90123.19;;;18.88;31.90
72585;BME280;60618;40.084;32.908;2023-10-13T09:55:48;90122.84;;;19.16;30.47
72585;BME280;60618;40.084;32.908;2023-10-13T09:58:17;90122.13;;;19.72;30.16
72585;BME280;60618;40.084;32.908;2023-10-13T10:00:52;90121.47;;;19.66;30.78
72585;BME280;60618;40.084;32.908;2023-10-13T10:03:21;90113.22;;;19.20;30.88
72585;BME280;60618;40.084;32.908;2023-10-13T10:05:56;90115.69;;;18.75;31.63
72585;BME280;60618;40.084;32.908;2023-10-13T10:08:24;90113.66;;;19.06;31.35
72585;BME280;60618;40.084;32.908;2023-10-13T10:11:28;90101.00;;;19.14;30.81
72585;BME280;60618;40.084;32.908;2023-10-13T10:14:09;90096.44;;;19.09;29.56
72585;BME280;60618;40.084;32.908;2023-10-13T10:19:15;90103.59;;;19.25;29.42
72585;BME280;60618;40.084;32.908;2023-10-13T10:21:43;90101.16;;;19.03;30.16
72585;BME280;60618;40.084;32.908;2023-10-13T10:24:16;90087.38;;;19.25;28.99
72585;BME280;60618;40.084;32.908;2023-10-13T10:26:51;90089.81;;;18.85;30.63
72585;BME280;60618;40.084;32.908;2023-10-13T10:29:18;90084.31;;;19.15;29.61
72585;BME280;60618;40.084;32.908;2023-10-13T10:31:45;90087.38;;;19.44;28.84
72585;BME280;60618;40.084;32.908;2023-10-13T10:34:16;90090.31;;;19.27;28.37
72585;BME280;60618;40.084;32.908;2023-10-13T10:36:46;90092.94;;;19.51;29.09
72585;BME280;60618;40.084;32.908;2023-10-13T10:39:13;90091.47;;;19.50;28.56
72585;BME280;60618;40.084;32.908;2023-10-13T10:41:40;90089.03;;;19.66;28.96
72585;BME280;60618;40.084;32.908;2023-10-13T10:44:13;90075.91;;;19.56;29.20
72585;BME280;60618;40.084;32.908;2023-10-13T10:46:40;90083.25;;;19.75;28.97
72585;BME280;60618;40.084;32.908;2023-10-13T10:49:07;90073.38;;;19.96;28.12
72585;BME280;60618;40.084;32.908;2023-10-13T10:51:41;90076.66;;;19.89;27.77
72585;BME280;60618;40.084;32.908;2023-10-13T10:54:18;90076.75;;;19.83;27.89
72585;BME280;60618;40.084;32.908;2023-10-13T10:56:46;90072.63;;;19.45;27.88
72585;BME280;60618;40.084;32.908;2023-10-13T10:59:14;90072.41;;;19.62;28.01
72585;BME280;60618;40.084;32.908;2023-10-13T11:01:44;90068.41;;;19.68;27.13
72585;BME280;60618;40.084;32.908;2023-10-13T11:04:11;90059.63;;;19.62;27.80
72585;BME280;60618;40.084;32.908;2023-10-13T11:07:00;90061.88;;;19.39;27.68
72585;BME280;60618;40.084;32.908;2023-10-13T11:09:31;90060.50;;;19.14;28.04
72585;BME280;60618;40.084;32.908;2023-10-13T11:14:35;90061.00;;;20.01;27.03
72585;BME280;60618;40.084;32.908;2023-10-13T11:17:02;90049.25;;;19.98;27.88
72585;BME280;60618;40.084;32.908;2023-10-13T11:19:39;90052.28;;;20.08;27.86
72585;BME280;60618;40.084;32.908;2023-10-13T11:22:20;90048.34;;;20.22;27.09
72585;BME280;60618;40.084;32.908;2023-10-13T11:24:48;90046.00;;;20.72;27.25
72585;BME280;60618;40.084;32.908;2023-10-13T11:27:15;90048.28;;;20.67;26.51
72585;BME280;60618;40.084;32.908;2023-10-13T11:29:42;90054.69;;;20.25;27.02
72585;BME280;60618;40.084;32.908;2023-10-13T11:32:09;90046.63;;;20.64;26.50
72585;BME280;60618;40.084;32.908;2023-10-13T11:34:36;90047.63;;;21.01;25.11
72585;BME280;60618;40.084;32.908;2023-10-13T11:37:03;90045.53;;;21.07;25.39
72585;BME280;60618;40.084;32.908;2023-10-13T11:39:30;90040.78;;;20.74;24.84
72585;BME280;60618;40.084;32.908;2023-10-13T11:41:57;90041.91;;;20.91;24.88
72585;BME280;60618;40.084;32.908;2023-10-13T11:44:24;90030.56;;;20.93;24.56
72585;BME280;60618;40.084;32.908;2023-10-13T11:46:50;90042.44;;;20.90;24.38
72585;BME280;60618;40.084;32.908;2023-10-13T11:49:17;90034.03;;;20.54;24.99
72585;BME280;60618;40.084;32.908;2023-10-13T11:51:48;90039.63;;;20.95;24.58
72585;BME280;60618;40.084;32.908;2023-10-13T11:54:19;90035.25;;;20.66;24.74
72585;BME280;60618;40.084;32.908;2023-10-13T11:56:48;90036.38;;;20.84;26.60
72585;BME280;60618;40.084;32.908;2023-10-13T11:59:15;90030.69;;;20.74;26.14
72585;BME280;60618;40.084;32.908;2023-10-13T12:01:48;90030.28;;;20.44;26.84
72585;BME280;60618;40.084;32.908;2023-10-13T12:04:15;90027.44;;;20.36;27.21
72585;BME280;60618;40.084;32.908;2023-10-13T12:06:44;90023.41;;;20.69;27.01
72585;BME280;60618;40.084;32.908;2023-10-13T12:09:11;90025.97;;;20.35;25.47
72585;BME280;60618;40.084;32.908;2023-10-13T12:11:38;90012.88;;;20.26;24.98
72585;BME280;60618;40.084;32.908;2023-10-13T12:14:05;90017.88;;;20.35;24.40
72585;BME280;60618;40.084;32.908;2023-10-13T12:16:32;90019.31;;;20.36;25.51
72585;BME280;60618;40.084;32.908;2023-10-13T12:18:59;90010.28;;;20.33;26.01
72585;BME280;60618;40.084;32.908;2023-10-13T12:21:27;90016.34;;;20.53;26.00
72585;BME280;60618;40.084;32.908;2023-10-13T12:23:54;90013.50;;;20.85;26.18
72585;BME280;60618;40.084;32.908;2023-10-13T12:26:20;90014.31;;;20.93;26.10
72585;BME280;60618;40.084;32.908;2023-10-13T12:28:47;90014.34;;;20.80;25.97
72585;BME280;60618;40.084;32.908;2023-10-13T12:31:14;90013.28;;;20.96;26.41
72585;BME280;60618;40.084;32.908;2023-10-13T12:33:41;90012.38;;;20.54;25.30
72585;BME280;60618;40.084;32.908;2023-10-13T12:36:08;90005.38;;;20.85;25.53
72585;BME280;60618;40.084;32.908;2023-10-13T12:38:37;90014.13;;;20.25;26.12
72585;BME280;60618;40.084;32.908;2023-10-13T12:41:07;90007.63;;;20.01;26.65
72585;BME280;60618;40.084;32.908;2023-10-13T12:43:50;90007.22;;;20.10;25.66
72585;BME280;60618;40.084;32.908;2023-10-13T12:46:17;90007.84;;;20.03;25.75
72585;BME280;60618;40.084;32.908;2023-10-13T12:48:44;90008.25;;;19.94;25.27
72585;BME280;60618;40.084;32.908;2023-10-13T12:51:11;90001.06;;;19.83;24.83
72585;BME280;60618;40.084;32.908;2023-10-13T12:53:38;90010.00;;;19.92;24.53
72585;BME280;60618;40.084;32.908;2023-10-13T12:56:05;90003.03;;;19.83;24.71
72585;BME280;60618;40.084;32.908;2023-10-13T12:58:32;90009.75;;;19.76;24.40
72585;BME280;60618;40.084;32.908;2023-10-13T13:01:00;90000.03;;;19.54;24.96
72585;BME280;60618;40.084;32.908;2023-10-13T13:03:27;90000.75;;;19.87;24.13
72585;BME280;60618;40.084;32.908;2023-10-13T13:05:54;90005.53;;;19.94;23.66
72585;BME280;60618;40.084;32.908;2023-10-13T13:08:21;90007.63;;;20.01;24.14